Terminal Aerodrome Forecast
Issued by NWS

Home | Current Version | Previous Version | Text Only | Print | Product List | Glossary On
Versions: 1 2 3 4 5 6 7 8 9 10 11 12 13
840
FTUS43 KSGF 262040 AAA
TAFBBG
TAF AMD
KBBG 262040Z 2621/2718 VRB04KT P6SM BKN150
      TEMPO 2623/2702 6SM TSRA BKN050CB
     FM270200 VRB03KT P6SM BKN100
     FM271000 10006KT P6SM SCT250=

USA.gov is the U.S. government's official web portal to all federal, state and local government web resources and services.